createdAt,value
2023-04-30T00:00:15.191Z,30.6615
2023-04-30T00:01:17.526Z,31.2000
2023-04-30T00:02:19.882Z,30.2833
2023-04-30T00:03:22.243Z,30.6846
2023-04-30T00:04:24.690Z,30.9462
2023-04-30T00:05:27.056Z,31.7750
2023-04-30T00:06:29.216Z,32.0417
2023-04-30T00:07:31.551Z,32.1583
2023-04-30T00:08:33.849Z,29.0923
2023-04-30T00:09:36.280Z,30.0308
2023-04-30T00:10:38.536Z,31.5923
2023-04-30T00:11:40.879Z,31.8846
2023-04-30T00:12:43.227Z,32.3154
2023-04-30T00:13:45.532Z,31.4500
2023-04-30T00:14:47.882Z,30.8538
2023-04-30T00:15:50.210Z,30.6923
2023-04-30T00:16:52.573Z,32.6462
2023-04-30T00:17:54.973Z,31.0231
2023-04-30T00:18:57.301Z,31.2462
2023-04-30T00:19:59.574Z,32.2917
2023-04-30T00:21:01.897Z,30.7692
2023-04-30T00:22:04.320Z,30.2154
2023-04-30T00:23:06.595Z,28.7231
2023-04-30T00:24:08.925Z,30.9385
2023-04-30T00:25:11.258Z,31.2769
2023-04-30T00:26:13.583Z,31.9462
2023-04-30T00:27:15.981Z,29.6077
2023-04-30T00:28:18.267Z,32.4769
2023-04-30T00:29:20.601Z,31.9308
2023-04-30T00:30:22.936Z,30.4769
2023-04-30T00:31:25.351Z,31.6077
2023-04-30T00:32:27.680Z,32.5231
2023-04-30T00:33:29.963Z,33.0000
2023-04-30T00:34:32.334Z,31.9154
2023-04-30T00:35:34.608Z,30.4077
2023-04-30T00:36:37.049Z,32.8231
2023-04-30T00:37:39.324Z,29.8769
2023-04-30T00:38:41.683Z,32.0000
2023-04-30T00:39:44.008Z,31.2308
2023-04-30T00:40:46.294Z,32.2846
2023-04-30T00:41:48.807Z,30.9462
2023-04-30T00:42:50.980Z,30.0333
2023-04-30T00:43:53.310Z,30.4250
2023-04-30T00:44:55.671Z,30.8846
2023-04-30T00:45:58.031Z,32.2308
2023-04-30T00:47:00.386Z,32.9462
2023-04-30T00:48:02.771Z,30.5923
2023-04-30T00:49:05.096Z,31.3846
2023-04-30T00:50:07.400Z,32.4154
2023-04-30T00:51:09.672Z,31.9154
2023-04-30T00:52:12.044Z,29.7769
2023-04-30T00:53:14.356Z,30.5231
2023-04-30T00:54:16.728Z,31.0077
2023-04-30T00:55:19.054Z,31.2769
2023-04-30T00:56:21.411Z,32.1462
2023-04-30T00:57:23.719Z,32.2077
2023-04-30T00:58:26.102Z,32.1231
2023-04-30T00:59:28.387Z,33.9385
2023-04-30T01:00:30.811Z,32.8083
2023-04-30T01:01:33.177Z,30.8077
2023-04-30T01:02:35.490Z,29.6308
2023-04-30T01:03:37.810Z,29.5692
2023-04-30T01:04:40.084Z,32.4615
2023-04-30T01:05:42.483Z,32.2167
2023-04-30T01:06:44.875Z,32.3923
2023-04-30T01:07:47.125Z,34.0923
2023-04-30T01:08:49.485Z,32.3769
2023-04-30T01:09:51.962Z,34.3692
2023-04-30T01:10:54.156Z,32.9846
2023-04-30T01:11:56.473Z,31.2385
2023-04-30T01:12:58.787Z,33.3385
2023-04-30T01:14:01.142Z,30.0692
2023-04-30T01:15:03.453Z,32.5154
2023-04-30T01:16:05.817Z,31.4385
2023-04-30T01:17:08.146Z,31.0385
2023-04-30T01:18:10.559Z,33.3077
2023-04-30T01:19:12.909Z,33.4692
2023-04-30T01:20:15.189Z,32.5462
2023-04-30T01:21:17.518Z,34.3077
2023-04-30T01:22:19.821Z,32.8692
2023-04-30T01:23:22.188Z,33.3231
2023-04-30T01:24:24.499Z,33.3833
2023-04-30T01:25:26.846Z,32.3385
2023-04-30T01:26:29.193Z,32.7077
2023-04-30T01:27:31.504Z,32.5308
2023-04-30T01:28:33.850Z,31.7833
2023-04-30T01:29:36.185Z,33.8000
2023-04-30T01:30:38.544Z,34.1923
2023-04-30T01:31:40.925Z,32.6538
2023-04-30T01:32:43.229Z,34.7692
2023-04-30T01:33:45.692Z,32.8385
2023-04-30T01:34:47.966Z,32.4385
2023-04-30T01:35:50.251Z,33.0909
2023-04-30T01:36:52.706Z,33.9615
2023-04-30T01:37:54.909Z,33.3923
2023-04-30T01:38:57.219Z,33.1308
2023-04-30T01:39:59.589Z,33.2462
2023-04-30T01:41:01.914Z,34.1000
2023-04-30T01:42:04.247Z,31.9167
2023-04-30T01:43:06.604Z,33.1385
2023-04-30T01:44:08.927Z,32.5308
2023-04-30T01:45:11.280Z,33.3692
2023-04-30T01:46:13.659Z,32.9846
2023-04-30T01:47:16.070Z,32.7308
2023-04-30T01:48:18.376Z,30.9077
2023-04-30T01:49:20.621Z,33.4154
2023-04-30T01:50:22.995Z,32.9769
2023-04-30T01:51:25.284Z,32.8667
2023-04-30T01:52:27.653Z,32.2231
2023-04-30T01:53:29.988Z,32.4077
2023-04-30T01:54:32.315Z,33.5231
2023-04-30T01:55:34.700Z,33.7231
2023-04-30T01:56:37.095Z,33.2000
2023-04-30T01:57:39.368Z,34.2077
2023-04-30T01:58:41.737Z,32.8308
2023-04-30T01:59:44.111Z,33.9923
2023-04-30T02:00:46.380Z,33.8538
2023-04-30T02:01:48.776Z,33.8538
2023-04-30T02:02:58.755Z,32.7615
2023-04-30T02:03:53.540Z,33.6455
2023-04-30T02:04:55.745Z,32.8417
2023-04-30T02:05:58.127Z,33.9154
2023-04-30T02:07:00.439Z,32.3769
2023-04-30T02:08:02.783Z,32.8615
2023-04-30T02:09:05.170Z,33.2154
2023-04-30T02:10:07.466Z,33.5846
2023-04-30T02:11:09.794Z,35.0154
2023-04-30T02:12:12.133Z,34.5923
2023-04-30T02:13:14.463Z,34.2692
2023-04-30T02:14:16.821Z,34.0154
2023-04-30T02:15:19.251Z,32.9462
2023-04-30T02:16:21.519Z,33.7231
2023-04-30T02:17:23.858Z,33.7154
2023-04-30T02:18:26.163Z,33.9615
2023-04-30T02:19:28.557Z,34.5615
2023-04-30T02:20:30.855Z,33.3462
2023-04-30T02:21:33.195Z,33.5923
2023-04-30T02:22:35.542Z,33.2385
2023-04-30T02:23:37.870Z,32.6231
2023-04-30T02:24:40.268Z,31.0846
2023-04-30T02:25:42.544Z,32.5154
2023-04-30T02:26:44.920Z,31.2923
2023-04-30T02:27:47.252Z,30.7077
2023-04-30T02:28:49.589Z,31.9769
2023-04-30T02:29:52.146Z,34.4917
2023-04-30T02:30:54.245Z,32.8917
2023-04-30T02:31:56.732Z,33.1462
2023-04-30T02:32:58.966Z,31.5538
2023-04-30T02:34:01.279Z,32.6462
2023-04-30T02:35:03.632Z,31.9692
2023-04-30T02:36:05.957Z,33.2846
2023-04-30T02:37:08.329Z,33.4692
2023-04-30T02:38:10.657Z,32.2923
2023-04-30T02:39:12.992Z,31.8538
2023-04-30T02:40:15.306Z,32.0231
2023-04-30T02:41:17.662Z,32.2462
2023-04-30T02:42:20.013Z,32.9154
2023-04-30T02:43:22.327Z,33.8385
2023-04-30T02:44:24.693Z,34.7923
2023-04-30T02:45:27.017Z,34.1846
2023-04-30T02:46:29.488Z,33.3615
2023-04-30T02:47:31.699Z,33.4083
2023-04-30T02:48:34.088Z,33.8308
2023-04-30T02:49:36.417Z,32.8462
2023-04-30T02:50:38.717Z,34.0923
2023-04-30T02:51:41.093Z,32.3462
2023-04-30T02:52:43.465Z,32.7769
2023-04-30T02:53:45.732Z,32.4000
2023-04-30T02:54:48.100Z,31.9077
2023-04-30T02:55:50.429Z,32.0231
2023-04-30T02:56:52.783Z,32.6923
2023-04-30T02:57:55.114Z,34.2692
2023-04-30T02:58:57.465Z,31.2769
2023-04-30T02:59:59.775Z,34.8154
2023-04-30T03:01:02.165Z,32.7385
2023-04-30T03:02:04.552Z,30.4538
2023-04-30T03:03:06.982Z,32.4154
2023-04-30T03:04:09.154Z,33.2385
2023-04-30T03:05:11.497Z,33.4846
2023-04-30T03:06:13.867Z,33.9462
2023-04-30T03:07:16.194Z,33.5231
2023-04-30T03:08:18.663Z,33.4000
2023-04-30T03:09:20.854Z,32.1000
2023-04-30T03:10:23.210Z,33.1615
2023-04-30T03:11:25.583Z,33.2385
2023-04-30T03:12:27.903Z,33.1615
2023-04-30T03:13:30.238Z,33.4077
2023-04-30T03:14:32.569Z,32.8615
2023-04-30T03:15:34.916Z,33.8462
2023-04-30T03:16:37.267Z,31.1846
2023-04-30T03:17:39.639Z,31.9154
2023-04-30T03:18:41.927Z,31.4692
2023-04-30T03:19:44.311Z,32.7462
2023-04-30T03:20:46.669Z,34.4077
2023-04-30T03:21:49.002Z,33.5692
2023-04-30T03:22:51.334Z,33.1077
2023-04-30T03:23:53.641Z,32.7846
2023-04-30T03:24:56.021Z,31.8538
2023-04-30T03:25:58.333Z,32.8692
2023-04-30T03:27:00.719Z,34.0615
2023-04-30T03:28:03.068Z,33.7154
2023-04-30T03:29:05.393Z,31.4077
2023-04-30T03:30:07.756Z,31.2846
2023-04-30T03:31:10.100Z,32.7692
2023-04-30T03:32:12.409Z,32.0462
2023-04-30T03:33:14.757Z,31.2538
2023-04-30T03:34:17.060Z,30.3154
2023-04-30T03:35:19.425Z,32.2077
2023-04-30T03:36:21.741Z,31.8231
2023-04-30T03:37:24.090Z,31.3083
2023-04-30T03:38:26.433Z,31.1077
2023-04-30T03:39:28.760Z,31.9231
2023-04-30T03:40:31.116Z,30.7385
2023-04-30T03:41:33.469Z,33.8846
2023-04-30T03:42:35.779Z,32.4769
2023-04-30T03:43:38.255Z,33.6077
2023-04-30T03:44:40.472Z,31.6308
2023-04-30T03:45:42.914Z,31.5462
2023-04-30T03:46:45.442Z,33.5462
2023-04-30T03:47:47.507Z,33.4833
2023-04-30T03:48:49.837Z,33.2385
2023-04-30T03:49:52.388Z,33.1154
2023-04-30T03:50:54.524Z,31.6833
2023-04-30T03:51:56.861Z,33.1846
2023-04-30T03:52:59.196Z,33.8667
2023-04-30T03:54:01.554Z,31.5077
2023-04-30T03:55:03.891Z,33.5385
2023-04-30T03:56:06.179Z,35.0769
2023-04-30T03:57:08.558Z,33.9077
2023-04-30T03:58:10.875Z,33.9385
2023-04-30T03:59:13.241Z,34.2923
2023-04-30T04:00:15.563Z,34.7385
2023-04-30T04:01:17.937Z,32.3308
2023-04-30T04:02:20.295Z,31.3077
2023-04-30T04:03:22.575Z,32.3154
2023-04-30T04:04:24.962Z,33.9308
2023-04-30T04:05:27.309Z,32.2750
2023-04-30T04:06:29.657Z,34.1769
2023-04-30T04:07:31.950Z,33.4000
2023-04-30T04:08:34.288Z,33.3538
2023-04-30T04:09:36.694Z,32.0538
2023-04-30T04:10:38.958Z,32.8692
2023-04-30T04:11:41.313Z,35.1167
2023-04-30T04:12:43.615Z,33.2250
2023-04-30T04:13:45.994Z,33.4923
2023-04-30T04:14:48.317Z,33.2583
2023-04-30T04:15:50.737Z,33.7231
2023-04-30T04:16:52.967Z,33.5769
2023-04-30T04:17:55.353Z,33.9154
2023-04-30T04:18:57.674Z,33.9917
2023-04-30T04:19:59.997Z,32.2385
2023-04-30T04:21:02.332Z,35.1385
2023-04-30T04:22:04.666Z,34.1154
2023-04-30T04:23:07.135Z,34.7692
2023-04-30T04:24:09.333Z,32.5231
2023-04-30T04:25:11.678Z,31.3308
2023-04-30T04:26:14.048Z,32.0615
2023-04-30T04:27:16.356Z,33.6077
2023-04-30T04:28:18.662Z,34.0000
2023-04-30T04:29:21.078Z,33.5083
2023-04-30T04:30:23.340Z,30.2077
2023-04-30T04:31:25.764Z,35.4417
2023-04-30T04:32:28.094Z,34.8231
2023-04-30T04:33:30.385Z,34.0846
2023-04-30T04:34:32.744Z,35.4538
2023-04-30T04:35:35.053Z,35.6154
2023-04-30T04:36:37.453Z,36.2462
2023-04-30T04:37:39.701Z,35.4417
2023-04-30T04:38:42.184Z,34.0833
2023-04-30T04:39:44.398Z,35.3769
2023-04-30T04:40:46.951Z,35.5769
2023-04-30T04:41:49.037Z,34.3667
2023-04-30T04:42:51.378Z,34.3077
2023-04-30T04:43:53.738Z,32.7154
2023-04-30T04:44:56.098Z,33.7154
2023-04-30T04:45:58.395Z,33.5077
2023-04-30T04:47:00.716Z,34.9923
2023-04-30T04:48:03.139Z,35.8538
2023-04-30T04:49:05.399Z,34.9308
2023-04-30T04:50:07.777Z,33.7000
2023-04-30T04:51:10.068Z,35.8538
2023-04-30T04:52:12.393Z,33.7385
2023-04-30T04:53:14.799Z,34.6846
2023-04-30T04:54:17.192Z,34.7692
2023-04-30T04:55:19.507Z,37.2154
2023-04-30T04:56:21.771Z,35.9923
2023-04-30T04:57:24.137Z,35.8000
2023-04-30T04:58:26.513Z,34.8231
2023-04-30T04:59:28.780Z,36.4154
2023-04-30T05:00:31.103Z,34.7462
2023-04-30T05:01:33.436Z,32.8833
2023-04-30T05:02:35.978Z,35.0385
2023-04-30T05:03:38.289Z,34.8692
2023-04-30T05:04:40.420Z,35.4769
2023-04-30T05:05:42.908Z,35.7692
2023-04-30T05:06:45.201Z,35.6462
2023-04-30T05:07:47.466Z,35.3846
2023-04-30T05:08:49.788Z,35.7692
2023-04-30T05:09:52.160Z,32.7462
2023-04-30T05:10:54.442Z,35.5385
2023-04-30T05:11:56.777Z,34.7083
2023-04-30T05:12:59.196Z,33.1692
2023-04-30T05:14:01.432Z,34.2000
2023-04-30T05:15:03.770Z,35.4692
2023-04-30T05:16:06.146Z,35.6000
2023-04-30T05:17:08.444Z,36.1769
2023-04-30T05:18:10.817Z,35.0846
2023-04-30T05:19:13.113Z,35.8000
2023-04-30T05:20:15.561Z,34.4462
2023-04-30T05:21:17.818Z,34.2000
2023-04-30T05:22:20.157Z,35.7000
2023-04-30T05:23:22.464Z,35.7000
2023-04-30T05:24:24.778Z,35.1154
2023-04-30T05:25:27.238Z,35.4231
2023-04-30T05:26:29.473Z,35.1538
2023-04-30T05:27:31.913Z,34.8308
2023-04-30T05:28:34.169Z,34.8308
2023-04-30T05:29:36.480Z,33.9615
2023-04-30T05:30:38.818Z,34.6769
2023-04-30T05:31:41.151Z,34.0250
2023-04-30T05:32:43.700Z,34.8308
2023-04-30T05:33:46.159Z,33.6167
2023-04-30T05:34:48.468Z,35.7083
2023-04-30T05:35:50.452Z,31.4250
2023-04-30T05:36:52.974Z,31.5154
2023-04-30T05:37:55.223Z,34.1583
2023-04-30T05:38:57.474Z,34.4923
2023-04-30T05:40:00.001Z,33.3308
2023-04-30T05:41:02.324Z,34.6250
2023-04-30T05:42:04.467Z,33.3727
2023-04-30T05:43:06.816Z,33.0154
2023-04-30T05:44:09.499Z,33.4000
2023-04-30T05:45:11.593Z,33.7167
2023-04-30T05:46:14.037Z,32.9846
2023-04-30T05:47:16.152Z,34.8083
2023-04-30T05:48:18.514Z,33.7846
2023-04-30T05:49:20.876Z,33.6385
2023-04-30T05:50:23.154Z,34.2077
2023-04-30T05:51:25.742Z,34.2462
2023-04-30T05:52:28.287Z,35.3667
2023-04-30T05:53:30.197Z,33.9083
2023-04-30T05:54:32.508Z,34.5692
2023-04-30T05:55:34.892Z,33.6077
2023-04-30T05:56:37.187Z,33.4538
2023-04-30T05:57:39.519Z,32.3154
2023-04-30T05:58:41.947Z,33.8077
2023-04-30T05:59:44.204Z,33.0692
2023-04-30T06:00:46.527Z,32.1385
2023-04-30T06:01:49.079Z,32.8692
2023-04-30T06:02:51.300Z,34.2833
2023-04-30T06:03:53.623Z,34.4692
2023-04-30T06:04:56.095Z,34.1077
2023-04-30T06:05:58.407Z,35.1417
2023-04-30T06:07:00.745Z,33.4769
2023-04-30T06:08:02.976Z,31.9923
2023-04-30T06:09:05.393Z,32.3308
2023-04-30T06:10:07.653Z,32.2846
2023-04-30T06:11:09.989Z,33.2846
2023-04-30T06:12:12.395Z,32.5000
2023-04-30T06:13:14.834Z,32.4308
2023-04-30T06:14:17.043Z,33.8462
2023-04-30T06:15:26.869Z,33.3077
2023-04-30T06:16:21.691Z,33.9727
2023-04-30T06:17:24.020Z,32.7846
2023-04-30T06:18:26.358Z,32.6000
2023-04-30T06:19:28.691Z,35.2538
2023-04-30T06:20:31.067Z,34.0692
2023-04-30T06:21:33.400Z,34.5000
2023-04-30T06:22:35.937Z,32.1077
2023-04-30T06:23:38.033Z,33.4583
2023-04-30T06:24:40.390Z,32.4769
2023-04-30T06:25:42.778Z,33.1692
2023-04-30T06:26:45.034Z,32.4000
2023-04-30T06:27:47.412Z,33.2231
2023-04-30T06:28:50.017Z,33.2538
2023-04-30T06:29:52.295Z,32.5500
2023-04-30T06:30:54.432Z,32.7917
2023-04-30T06:31:56.781Z,33.3385
2023-04-30T06:32:59.138Z,33.3923
2023-04-30T06:34:01.449Z,34.3923
2023-04-30T06:35:03.776Z,33.7846
2023-04-30T06:36:06.145Z,33.5154
2023-04-30T06:37:08.448Z,34.5462
2023-04-30T06:38:10.778Z,34.3846
2023-04-30T06:39:13.111Z,35.1308
2023-04-30T06:40:15.456Z,35.9462
2023-04-30T06:41:17.806Z,33.7692
2023-04-30T06:42:20.154Z,33.7308
2023-04-30T06:43:22.479Z,34.4615
2023-04-30T06:44:25.059Z,33.9231
2023-04-30T06:45:27.183Z,34.3333
2023-04-30T06:46:29.647Z,34.2923
2023-04-30T06:47:31.829Z,33.7615
2023-04-30T06:48:34.186Z,33.4000
2023-04-30T06:49:36.480Z,35.1923
2023-04-30T06:50:38.856Z,34.5923
2023-04-30T06:51:41.210Z,34.9462
2023-04-30T06:52:43.530Z,34.1538
2023-04-30T06:53:45.821Z,33.6231
2023-04-30T06:54:48.217Z,34.3231
2023-04-30T06:55:50.531Z,33.6846
2023-04-30T06:56:52.903Z,35.3231
2023-04-30T06:57:55.193Z,34.3231
2023-04-30T06:58:57.534Z,34.5308
2023-04-30T06:59:59.836Z,33.0308
2023-04-30T07:01:02.194Z,32.8615
2023-04-30T07:02:04.541Z,32.4385
2023-04-30T07:03:06.930Z,32.2154
2023-04-30T07:04:09.190Z,33.1692
2023-04-30T07:05:11.827Z,31.8462
2023-04-30T07:06:13.894Z,33.5333
2023-04-30T07:07:16.208Z,33.5769
2023-04-30T07:08:18.557Z,33.8692
2023-04-30T07:09:20.888Z,35.6923
2023-04-30T07:10:23.207Z,35.4846
2023-04-30T07:11:25.544Z,37.1154
2023-04-30T07:12:27.893Z,33.7846
2023-04-30T07:13:30.211Z,34.2846
2023-04-30T07:14:32.550Z,33.7231
2023-04-30T07:15:34.971Z,33.6923
2023-04-30T07:16:37.215Z,32.4846
2023-04-30T07:17:39.644Z,33.4231
2023-04-30T07:18:42.030Z,32.6500
2023-04-30T07:19:44.242Z,32.9385
2023-04-30T07:20:46.574Z,31.2923
2023-04-30T07:21:48.924Z,33.9231
2023-04-30T07:22:51.241Z,34.5923
2023-04-30T07:23:53.620Z,31.4000
2023-04-30T07:24:55.931Z,33.7615
2023-04-30T07:25:58.260Z,33.9923
2023-04-30T07:27:00.677Z,34.7769
2023-04-30T07:28:02.936Z,33.2308
2023-04-30T07:29:05.472Z,33.7583
2023-04-30T07:30:07.659Z,32.9636
2023-04-30T07:31:09.995Z,35.8154
2023-04-30T07:32:12.311Z,37.4692
2023-04-30T07:33:14.703Z,36.1308
2023-04-30T07:34:16.987Z,36.1154
2023-04-30T07:35:19.395Z,33.6769
2023-04-30T07:36:21.646Z,36.4846
2023-04-30T07:37:23.989Z,35.0154
2023-04-30T07:38:26.343Z,34.8923
2023-04-30T07:39:28.675Z,35.6385
2023-04-30T07:40:36.252Z,34.0692
2023-04-30T07:41:33.339Z,33.7909
2023-04-30T07:42:35.847Z,33.5308
2023-04-30T07:43:38.066Z,32.0923
2023-04-30T07:44:40.377Z,34.9769
2023-04-30T07:45:42.869Z,35.5000
2023-04-30T07:46:45.090Z,35.5923
2023-04-30T07:47:47.396Z,36.4538
2023-04-30T07:48:49.782Z,36.1667
2023-04-30T07:49:52.111Z,36.1000
2023-04-30T07:50:54.573Z,35.4231
2023-04-30T07:51:56.955Z,35.6182
2023-04-30T07:52:59.112Z,31.3167
2023-04-30T07:54:01.402Z,31.5538
2023-04-30T07:55:03.772Z,35.4308
2023-04-30T07:56:06.196Z,34.6846
2023-04-30T07:57:08.429Z,35.9462
2023-04-30T07:58:10.824Z,34.8769
2023-04-30T07:59:13.111Z,35.1846
2023-04-30T08:00:15.978Z,34.9923
2023-04-30T08:01:17.809Z,34.2500
2023-04-30T08:02:20.208Z,37.0385
2023-04-30T08:03:22.526Z,33.3615
2023-04-30T08:04:24.941Z,32.0615
2023-04-30T08:05:27.137Z,32.1846
2023-04-30T08:06:29.540Z,33.9538
2023-04-30T08:07:31.820Z,34.6417
2023-04-30T08:08:34.153Z,32.6846
2023-04-30T08:09:36.539Z,32.7538
2023-04-30T08:10:38.856Z,31.0333
2023-04-30T08:11:41.188Z,32.5538
2023-04-30T08:12:43.575Z,32.6385
2023-04-30T08:13:45.845Z,31.0538
2023-04-30T08:14:48.174Z,32.9154
2023-04-30T08:15:50.524Z,32.7667
2023-04-30T08:16:52.975Z,32.8154
2023-04-30T08:17:55.230Z,32.5846
2023-04-30T08:18:57.561Z,33.6462
2023-04-30T08:19:59.873Z,31.2231
2023-04-30T08:21:02.203Z,33.4154
2023-04-30T08:22:04.540Z,33.2385
2023-04-30T08:23:06.921Z,32.0692
2023-04-30T08:24:09.209Z,32.3417
2023-04-30T08:25:11.725Z,34.4462
2023-04-30T08:26:13.893Z,34.8154
2023-04-30T08:27:16.241Z,33.2417
2023-04-30T08:28:18.565Z,32.8833
2023-04-30T08:29:20.936Z,33.1308
2023-04-30T08:30:23.374Z,31.5615
2023-04-30T08:31:25.731Z,30.5231
2023-04-30T08:32:28.021Z,32.8083
2023-04-30T08:33:30.413Z,31.9538
2023-04-30T08:34:32.635Z,33.3077
2023-04-30T08:35:35.008Z,32.5692
2023-04-30T08:36:37.321Z,32.4769
2023-04-30T08:37:39.627Z,33.2769
2023-04-30T08:38:41.959Z,30.4154
2023-04-30T08:39:44.346Z,32.1692
2023-04-30T08:40:51.575Z,31.8308
2023-04-30T08:41:48.962Z,31.2273
2023-04-30T08:42:51.340Z,30.8308
2023-04-30T08:43:53.679Z,28.4462
2023-04-30T08:44:56.025Z,29.9538
2023-04-30T08:45:58.327Z,29.8154
2023-04-30T08:47:00.674Z,30.5615
2023-04-30T08:48:03.154Z,31.3923
2023-04-30T08:49:05.355Z,31.3154
2023-04-30T08:50:07.835Z,31.7538
2023-04-30T08:51:09.988Z,30.0462
2023-04-30T08:52:12.369Z,29.9231
2023-04-30T08:53:14.712Z,29.9538
2023-04-30T08:54:17.016Z,30.7000
2023-04-30T08:55:19.356Z,31.5231
2023-04-30T08:56:23.109Z,32.6385
2023-04-30T08:57:24.032Z,30.1167
2023-04-30T08:58:26.375Z,29.7583
2023-04-30T08:59:28.709Z,28.6083
2023-04-30T09:00:31.134Z,29.2538
2023-04-30T09:01:33.449Z,28.9000
2023-04-30T09:02:35.832Z,28.8083
2023-04-30T09:03:38.182Z,27.7769
2023-04-30T09:04:40.583Z,27.5923
2023-04-30T09:05:42.785Z,28.5692
2023-04-30T09:06:45.201Z,28.5538
2023-04-30T09:08:49.870Z,27.7083
2023-04-30T09:09:52.171Z,28.8692
2023-04-30T09:10:54.427Z,27.1846
2023-04-30T09:11:56.761Z,29.3385
2023-04-30T09:12:59.097Z,29.3667
2023-04-30T09:14:01.463Z,29.6538
2023-04-30T09:15:03.914Z,29.3923
2023-04-30T09:16:06.160Z,30.4583
2023-04-30T09:17:08.439Z,29.3154
2023-04-30T09:18:10.895Z,27.3538
2023-04-30T09:19:13.127Z,27.6538
2023-04-30T09:20:15.474Z,26.8615
2023-04-30T09:21:17.798Z,27.8692
2023-04-30T09:22:20.137Z,25.1538
2023-04-30T09:23:22.488Z,25.9231
2023-04-30T09:24:24.869Z,27.3077
2023-04-30T09:25:27.173Z,25.4833
2023-04-30T09:26:29.519Z,26.5615
2023-04-30T09:27:31.842Z,23.8231
2023-04-30T09:28:34.167Z,24.4462
2023-04-30T09:29:36.519Z,26.1923
2023-04-30T09:30:38.960Z,26.1308
2023-04-30T09:31:41.214Z,25.8308
2023-04-30T09:32:43.542Z,24.8462
2023-04-30T09:33:46.040Z,24.0538
2023-04-30T09:34:48.215Z,21.5167
2023-04-30T09:35:50.531Z,20.0154
2023-04-30T09:36:52.908Z,21.6167
2023-04-30T09:37:55.244Z,20.6308
2023-04-30T09:38:57.558Z,19.8462
2023-04-30T09:39:59.893Z,21.8923
2023-04-30T09:41:02.230Z,20.3000
2023-04-30T09:42:04.571Z,19.5462
2023-04-30T09:43:06.946Z,17.6154
2023-04-30T09:44:09.291Z,16.9846
2023-04-30T09:45:11.590Z,14.9615
2023-04-30T09:46:13.959Z,16.4923
2023-04-30T09:47:16.267Z,16.2154
2023-04-30T09:48:18.685Z,17.4846
2023-04-30T09:49:20.979Z,15.8538
2023-04-30T09:50:23.350Z,15.1692
2023-04-30T09:51:25.652Z,12.2231
2023-04-30T09:52:28.005Z,10.5769
2023-04-30T09:53:30.314Z,9.5231
2023-04-30T09:54:32.697Z,8.7923
2023-04-30T09:55:35.032Z,8.8846
2023-04-30T09:56:37.339Z,7.9615
2023-04-30T09:57:39.674Z,8.0417
2023-04-30T09:58:42.016Z,10.0154
2023-04-30T09:59:44.365Z,11.9417
2023-04-30T10:00:46.907Z,13.8154
2023-04-30T10:01:49.047Z,12.0917
2023-04-30T10:02:51.414Z,10.4692
2023-04-30T10:03:54.042Z,11.0462
2023-04-30T10:04:56.115Z,8.4333
2023-04-30T10:05:58.431Z,7.5923
2023-04-30T10:07:00.822Z,6.7000
2023-04-30T10:08:03.174Z,6.2692
2023-04-30T10:09:05.546Z,6.0083
2023-04-30T10:10:07.892Z,6.4692
2023-04-30T10:11:10.199Z,6.5000
2023-04-30T10:12:12.536Z,5.8385
2023-04-30T10:13:15.165Z,5.4692
2023-04-30T10:14:17.227Z,5.9833
2023-04-30T10:15:19.567Z,6.5308
2023-04-30T10:16:22.967Z,5.4154
2023-04-30T10:17:24.280Z,5.6500
2023-04-30T10:18:26.609Z,5.2462
2023-04-30T10:19:28.963Z,5.2615
2023-04-30T10:20:32.024Z,5.4077
2023-04-30T10:21:33.629Z,5.6250
2023-04-30T10:22:36.020Z,5.1538
2023-04-30T10:23:38.328Z,5.1692
2023-04-30T10:24:40.670Z,5.3077
2023-04-30T10:25:43.076Z,5.0308
2023-04-30T10:26:45.375Z,4.7000
2023-04-30T10:27:47.704Z,5.2077
2023-04-30T10:28:50.120Z,5.1923
2023-04-30T10:29:52.438Z,5.3923
2023-04-30T10:30:54.773Z,4.5462
2023-04-30T10:31:57.155Z,4.9923
2023-04-30T10:32:59.500Z,5.0923
2023-04-30T10:34:01.789Z,4.8385
2023-04-30T10:35:04.166Z,4.7462
2023-04-30T10:36:06.515Z,5.0923
2023-04-30T10:37:08.939Z,4.9538
2023-04-30T10:38:11.274Z,4.2077
2023-04-30T10:39:13.580Z,4.3231
2023-04-30T10:40:15.855Z,4.3615
2023-04-30T10:41:18.208Z,4.9846
2023-04-30T10:42:20.545Z,4.3077
2023-04-30T10:43:22.949Z,4.9154
2023-04-30T10:44:25.240Z,4.5077
2023-04-30T10:45:27.589Z,5.0846
2023-04-30T10:46:29.965Z,4.3308
2023-04-30T10:47:32.314Z,5.0750
2023-04-30T10:48:34.625Z,4.1231
2023-04-30T10:49:36.975Z,4.9308
2023-04-30T10:50:39.301Z,4.1833
2023-04-30T10:51:41.699Z,4.1462
2023-04-30T10:52:43.989Z,3.9462
2023-04-30T10:53:46.348Z,4.1077
2023-04-30T10:54:48.699Z,3.7231
2023-04-30T10:55:51.037Z,4.7308
2023-04-30T10:56:53.406Z,4.3462
2023-04-30T10:57:55.886Z,5.1077
2023-04-30T10:58:58.072Z,4.5692
2023-04-30T11:00:00.419Z,4.1538
2023-04-30T11:01:02.922Z,4.6231
2023-04-30T11:02:05.120Z,3.9667
2023-04-30T11:03:07.841Z,4.1250
2023-04-30T11:04:09.790Z,4.3250
2023-04-30T11:05:12.817Z,3.9769
2023-04-30T11:06:14.552Z,3.8250
2023-04-30T11:07:16.888Z,3.5154
2023-04-30T11:08:19.165Z,3.9692
2023-04-30T11:09:21.502Z,4.1615
2023-04-30T11:10:23.920Z,3.8462
2023-04-30T11:11:26.191Z,4.3538
2023-04-30T11:12:28.728Z,4.0462
2023-04-30T11:13:30.925Z,4.1750
2023-04-30T11:14:33.218Z,4.1077
2023-04-30T11:15:35.635Z,3.2231
2023-04-30T11:16:37.955Z,3.6000
2023-04-30T11:17:40.323Z,3.2846
2023-04-30T11:18:42.601Z,3.9308
2023-04-30T11:19:44.934Z,4.5615
2023-04-30T11:20:47.314Z,3.5385
2023-04-30T11:21:49.685Z,3.5000
2023-04-30T11:22:52.017Z,3.4231
2023-04-30T11:23:54.426Z,3.4692
2023-04-30T11:24:56.644Z,4.0923
2023-04-30T11:25:58.989Z,4.0750
2023-04-30T11:27:01.330Z,3.7846
2023-04-30T11:28:03.692Z,3.4583
2023-04-30T11:29:06.225Z,4.0846
2023-04-30T11:30:08.389Z,4.1231
2023-04-30T11:31:10.719Z,3.4333
2023-04-30T11:32:13.046Z,4.2692
2023-04-30T11:33:15.402Z,4.7077
2023-04-30T11:34:17.836Z,4.5667
2023-04-30T11:35:20.091Z,3.9308
2023-04-30T11:36:22.421Z,4.3000
2023-04-30T11:37:24.750Z,3.3769
2023-04-30T11:38:27.139Z,3.7231
2023-04-30T11:39:29.440Z,3.8231
2023-04-30T11:40:31.779Z,4.0769
2023-04-30T11:41:34.111Z,3.9769
2023-04-30T11:42:36.558Z,3.5000
2023-04-30T11:43:38.863Z,4.5154
2023-04-30T11:44:41.174Z,4.0385
2023-04-30T11:45:43.475Z,3.3231
2023-04-30T11:46:45.893Z,3.5154
2023-04-30T11:47:48.303Z,4.0000
2023-04-30T11:48:50.505Z,3.9385
2023-04-30T11:49:53.295Z,4.0077
2023-04-30T11:50:55.213Z,3.8250
2023-04-30T11:51:57.545Z,3.3462
2023-04-30T11:52:59.854Z,4.2154
2023-04-30T11:54:02.335Z,3.4583
2023-04-30T11:55:04.518Z,3.4500
2023-04-30T11:56:06.947Z,3.6000
2023-04-30T11:57:09.192Z,3.8385
2023-04-30T11:58:11.617Z,3.5154
2023-04-30T11:59:13.888Z,3.9818
2023-04-30T12:00:16.282Z,3.3833
2023-04-30T12:01:18.571Z,3.5308
2023-04-30T12:02:21.023Z,3.3615
2023-04-30T12:03:23.302Z,3.6154
2023-04-30T12:04:25.623Z,3.3923
2023-04-30T12:05:27.970Z,3.5923
2023-04-30T12:06:30.362Z,3.8154
2023-04-30T12:07:32.602Z,3.7846
2023-04-30T12:08:34.979Z,3.7692
2023-04-30T12:09:37.292Z,3.6000
2023-04-30T12:10:39.632Z,4.3615
2023-04-30T12:11:41.987Z,3.5692
2023-04-30T12:12:44.329Z,3.3231
2023-04-30T12:13:46.657Z,3.4462
2023-04-30T12:14:49.167Z,3.9231
2023-04-30T12:15:51.359Z,3.5750
2023-04-30T12:16:53.721Z,3.8462
2023-04-30T12:17:56.362Z,3.7538
2023-04-30T12:18:58.398Z,3.4083
2023-04-30T12:20:00.715Z,3.3769
2023-04-30T12:21:03.079Z,3.3923
2023-04-30T12:22:05.408Z,3.4077
2023-04-30T12:23:07.797Z,3.9000
2023-04-30T12:24:10.096Z,3.6154
2023-04-30T12:25:12.427Z,3.6462
2023-04-30T12:26:14.981Z,3.4417
2023-04-30T12:27:17.136Z,4.6750
2023-04-30T12:28:19.457Z,3.2077
2023-04-30T12:29:21.805Z,3.5231
2023-04-30T12:30:24.701Z,3.8538
2023-04-30T12:31:26.492Z,3.1667
2023-04-30T12:32:28.968Z,3.3308
2023-04-30T12:33:31.165Z,3.5333
2023-04-30T12:34:33.979Z,3.3000
2023-04-30T12:35:35.960Z,3.6417
2023-04-30T12:36:38.216Z,3.6462
2023-04-30T12:37:40.586Z,3.4000
2023-04-30T12:38:42.933Z,3.5231
2023-04-30T12:39:45.213Z,3.4000